Haysville, Kansas
Current Conditions -  °F | °C
As of 6:58 PM on Saturday 25 Oct 2014 (Local Time) from KIAB Reporting Station
Clear Clear  
Wind Chill: 77°   Ceiling: Unl
Heat Index: 79°   Visibility: 10mi
Dew Point: 58°   Wind: 7mph
Humidity: 52%   Direction: 140°SE
Pressure: 29.99"   Gusts: NA
Location:  37.56°N, 97.35°W
Report Text: KIAB 252358Z AUTO 14006KT 10SM CLR 25/15 A2999 RMK AO2 SLP150 T02500145 10321 20246 57008
Loading
Personal Weather Stations






























Interactive Weather Map
Tropical Storm Tracking
New forecast layout! Learn more

10-Day Weather Forecast

Advertisements
Track Severe Weather on mobile